createdAt,value
2023-02-26T00:00:10.355Z,539.00
2023-02-26T00:01:10.388Z,545.00
2023-02-26T00:02:10.467Z,540.00
2023-02-26T00:03:10.429Z,533.00
2023-02-26T00:04:10.434Z,540.00
2023-02-26T00:05:10.462Z,541.00
2023-02-26T00:06:10.464Z,541.00
2023-02-26T00:07:10.494Z,545.00
2023-02-26T00:08:10.478Z,543.00
2023-02-26T00:09:10.469Z,548.00
2023-02-26T00:10:10.514Z,541.00
2023-02-26T00:11:10.530Z,539.00
2023-02-26T00:14:10.569Z,545.00
2023-02-26T00:18:10.592Z,541.00
2023-02-26T00:19:10.663Z,549.00
2023-02-26T00:20:10.721Z,549.00
2023-02-26T00:21:10.651Z,550.00
2023-02-26T00:22:10.702Z,551.00
2023-02-26T00:23:10.708Z,550.00
2023-02-26T00:24:10.718Z,549.00
2023-02-26T00:25:10.735Z,547.00
2023-02-26T00:26:10.729Z,553.00
2023-02-26T00:27:10.736Z,547.00
2023-02-26T00:28:10.770Z,556.00
2023-02-26T00:29:10.814Z,559.00
2023-02-26T00:30:10.774Z,555.00
2023-02-26T00:31:10.902Z,554.00
2023-02-26T00:32:10.967Z,559.00
2023-02-26T00:33:10.879Z,554.00
2023-02-26T00:34:10.844Z,558.00
2023-02-26T00:35:10.859Z,560.00
2023-02-26T00:36:10.890Z,559.00
2023-02-26T00:37:10.908Z,554.00
2023-02-26T00:38:10.913Z,557.00
2023-02-26T00:39:10.952Z,561.00
2023-02-26T00:40:10.963Z,564.00
2023-02-26T00:41:10.976Z,561.00
2023-02-26T00:42:11.040Z,556.00
2023-02-26T01:46:12.366Z,560.00
2023-02-26T01:47:12.341Z,557.00
2023-02-26T01:48:12.336Z,558.00
2023-02-26T01:49:12.371Z,561.00
2023-02-26T01:50:12.401Z,564.00
2023-02-26T01:51:12.437Z,557.00
2023-02-26T01:52:12.434Z,552.00
2023-02-26T01:53:12.475Z,547.00
2023-02-26T01:54:12.485Z,547.00
2023-02-26T01:55:12.485Z,558.00
2023-02-26T01:56:12.547Z,551.00
2023-02-26T01:57:12.553Z,549.00
2023-02-26T01:58:12.588Z,551.00
2023-02-26T01:59:12.625Z,547.00
2023-02-26T02:00:12.636Z,559.00
2023-02-26T02:01:12.628Z,552.00
2023-02-26T02:02:12.748Z,549.00
2023-02-26T02:03:12.816Z,544.00
2023-02-26T02:04:12.722Z,547.00
2023-02-26T02:05:12.757Z,547.00
2023-02-26T02:06:12.759Z,546.00
2023-02-26T02:07:12.805Z,542.00
2023-02-26T02:08:12.810Z,554.00
2023-02-26T02:09:12.852Z,542.00
2023-02-26T02:10:12.926Z,542.00
2023-02-26T02:11:12.912Z,540.00
2023-02-26T04:04:16.524Z,553.00
2023-02-26T04:05:16.536Z,545.00
2023-02-26T04:06:16.544Z,534.00
2023-02-26T04:07:17.416Z,540.00
2023-02-26T04:08:16.647Z,552.00
2023-02-26T04:09:16.667Z,549.00
2023-02-26T04:10:16.722Z,552.00
2023-02-26T04:11:16.736Z,550.00
2023-02-26T04:12:16.803Z,555.00
2023-02-26T04:13:16.855Z,543.00
2023-02-26T04:14:16.889Z,542.00
2023-02-26T04:15:16.968Z,548.00
2023-02-26T04:16:17.013Z,545.00
2023-02-26T04:17:18.707Z,541.00
2023-02-26T04:18:17.094Z,536.00
2023-02-26T04:19:17.096Z,541.00
2023-02-26T04:20:17.160Z,540.00
2023-02-26T04:21:17.191Z,546.00
2023-02-26T04:22:17.244Z,531.00
2023-02-26T04:23:17.285Z,535.00
2023-02-26T04:24:17.317Z,548.00
2023-02-26T04:25:17.372Z,539.00
2023-02-26T04:26:17.393Z,544.00
2023-02-26T04:27:17.457Z,548.00
2023-02-26T04:28:17.496Z,555.00
2023-02-26T04:29:17.578Z,550.00
2023-02-26T04:30:17.574Z,549.00
2023-02-26T04:31:17.725Z,550.00
2023-02-26T04:32:17.729Z,546.00
2023-02-26T04:33:17.713Z,550.00
2023-02-26T04:34:17.768Z,553.00
2023-02-26T04:35:17.813Z,545.00
2023-02-26T04:36:17.865Z,549.00
2023-02-26T04:37:17.911Z,547.00
2023-02-26T04:38:17.929Z,549.00
2023-02-26T04:39:17.991Z,543.00
2023-02-26T04:40:18.065Z,541.00
2023-02-26T04:41:18.110Z,549.00
2023-02-26T04:42:18.123Z,556.00
2023-02-26T04:43:18.179Z,550.00
2023-02-26T04:44:18.210Z,542.00
2023-02-26T04:45:18.297Z,558.00
2023-02-26T04:46:18.395Z,550.00
2023-02-26T04:47:18.348Z,549.00
2023-02-26T04:48:18.425Z,550.00
2023-02-26T04:49:18.461Z,543.00
2023-02-26T04:50:18.526Z,548.00
2023-02-26T04:51:18.574Z,550.00
2023-02-26T04:52:18.639Z,546.00
2023-02-26T04:53:18.637Z,539.00
2023-02-26T04:54:18.691Z,544.00
2023-02-26T04:55:18.762Z,538.00
2023-02-26T04:56:18.806Z,543.00
2023-02-26T04:57:18.888Z,548.00
2023-02-26T04:58:18.881Z,549.00
2023-02-26T04:59:19.002Z,549.00
2023-02-26T05:00:19.001Z,543.00
2023-02-26T05:01:19.054Z,549.00
2023-02-26T05:02:19.089Z,556.00
2023-02-26T05:03:19.182Z,548.00
2023-02-26T05:04:19.285Z,547.00
2023-02-26T05:05:19.235Z,554.00
2023-02-26T05:06:19.310Z,550.00
2023-02-26T05:07:19.357Z,555.00
2023-02-26T05:08:19.379Z,555.00
2023-02-26T05:09:19.477Z,558.00
2023-02-26T05:10:19.485Z,555.00
2023-02-26T05:11:19.535Z,559.00
2023-02-26T05:12:19.593Z,565.00
2023-02-26T05:13:19.650Z,559.00
2023-02-26T05:14:19.672Z,558.00
2023-02-26T05:15:19.729Z,555.00
2023-02-26T07:20:26.504Z,543.00
2023-02-26T07:21:26.564Z,542.00
2023-02-26T07:22:26.586Z,548.00
2023-02-26T07:23:26.669Z,538.00
2023-02-26T07:24:26.729Z,549.00
2023-02-26T07:25:26.806Z,549.00
2023-02-26T07:26:27.262Z,547.00
2023-02-26T07:27:26.908Z,538.00
2023-02-26T07:28:26.927Z,547.00
2023-02-26T07:29:27.027Z,561.00
2023-02-26T07:30:27.148Z,556.00
2023-02-26T07:31:27.277Z,538.00
2023-02-26T07:32:27.266Z,549.00
2023-02-26T07:33:27.208Z,535.00
2023-02-26T07:34:27.319Z,538.00
2023-02-26T07:35:27.322Z,550.00
2023-02-26T07:36:27.699Z,541.00
2023-02-26T07:37:27.467Z,538.00
2023-02-26T07:38:27.513Z,544.00
2023-02-26T07:39:27.592Z,534.00
2023-02-26T07:40:27.717Z,546.00
2023-02-26T07:41:27.701Z,548.00
2023-02-26T07:42:27.783Z,524.00
2023-02-26T07:43:27.825Z,541.00
2023-02-26T07:44:27.907Z,551.00
2023-02-26T07:45:27.953Z,550.00
2023-02-26T07:46:28.422Z,550.00
2023-02-26T07:47:28.063Z,547.00
2023-02-26T07:48:28.113Z,554.00
2023-02-26T07:49:28.174Z,561.00
2023-02-26T07:50:28.195Z,557.00
2023-02-26T07:51:28.391Z,545.00
2023-02-26T13:43:35.171Z,524.00
2023-02-26T13:44:35.209Z,539.00
2023-02-26T13:45:35.282Z,516.00
2023-02-26T13:46:35.261Z,529.00
2023-02-26T13:47:35.321Z,540.00
2023-02-26T13:48:35.291Z,548.00
2023-02-26T13:49:35.346Z,554.00
2023-02-26T14:27:36.466Z,535.00
2023-02-26T14:28:36.546Z,537.00
2023-02-26T14:29:36.575Z,548.00
2023-02-26T14:30:36.674Z,543.00
2023-02-26T14:31:36.697Z,521.00
2023-02-26T14:32:36.714Z,557.00
2023-02-26T14:33:36.704Z,536.00
2023-02-26T14:34:36.755Z,543.00
2023-02-26T14:35:36.790Z,551.00
2023-02-26T14:36:36.837Z,571.00
2023-02-26T14:37:36.884Z,568.00
2023-02-26T14:38:36.940Z,567.00
2023-02-26T14:39:37.670Z,558.00
2023-02-26T14:40:37.004Z,597.00
2023-02-26T14:41:37.062Z,577.00
2023-02-26T14:42:37.189Z,562.00
2023-02-26T14:43:37.123Z,574.00
2023-02-26T14:44:37.161Z,629.00
2023-02-26T14:45:37.197Z,600.00
2023-02-26T14:46:37.250Z,593.00
2023-02-26T14:47:37.299Z,568.00
2023-02-26T14:48:37.338Z,583.00
2023-02-26T14:49:37.398Z,582.00
2023-02-26T14:50:37.397Z,603.00
2023-02-26T14:51:37.435Z,593.00
2023-02-26T14:52:37.497Z,572.00
2023-02-26T14:53:37.515Z,629.00
2023-02-26T14:54:37.585Z,585.00
2023-02-26T14:55:37.611Z,577.00
2023-02-26T14:56:37.690Z,577.00
2023-02-26T14:57:37.693Z,608.00
2023-02-26T14:58:37.764Z,587.00
2023-02-26T14:59:37.818Z,623.00
2023-02-26T15:00:37.813Z,584.00
2023-02-26T15:01:38.494Z,578.00
2023-02-26T15:02:37.954Z,552.00
2023-02-26T15:03:37.976Z,584.00
2023-02-26T15:04:38.022Z,580.00
2023-02-26T15:05:38.046Z,606.00
2023-02-26T15:06:38.107Z,642.00
2023-02-26T15:07:38.237Z,609.00
2023-02-26T15:08:38.198Z,585.00
2023-02-26T15:09:38.267Z,564.00
2023-02-26T15:45:40.386Z,642.00
2023-02-26T17:34:46.502Z,753.00
2023-02-26T17:35:46.572Z,755.00
2023-02-26T17:36:46.641Z,756.00
2023-02-26T17:37:46.699Z,757.00
2023-02-26T17:38:46.755Z,778.00
2023-02-26T17:39:46.833Z,776.00
2023-02-26T17:40:46.873Z,777.00
2023-02-26T17:41:46.959Z,777.00
2023-02-26T17:42:47.005Z,772.00
2023-02-26T17:43:47.070Z,768.00
2023-02-26T17:44:47.124Z,763.00
2023-02-26T17:45:47.302Z,772.00
2023-02-26T17:46:47.264Z,736.00
2023-02-26T17:47:47.313Z,782.00
2023-02-26T17:48:47.374Z,779.00
2023-02-26T17:49:47.414Z,777.00
2023-02-26T17:50:47.580Z,770.00
2023-02-26T17:51:47.562Z,756.00
2023-02-26T17:52:47.604Z,730.00
2023-02-26T17:53:47.660Z,749.00
2023-02-26T17:54:47.702Z,732.00
2023-02-26T17:55:47.778Z,737.00
2023-02-26T17:56:47.816Z,751.00
2023-02-26T17:57:47.832Z,789.00
2023-02-26T17:58:47.878Z,764.00
2023-02-26T17:59:47.941Z,781.00
2023-02-26T18:00:48.004Z,749.00
2023-02-26T18:01:48.081Z,745.00
2023-02-26T18:02:48.113Z,756.00
2023-02-26T18:45:49.380Z,730.00
2023-02-26T18:46:49.329Z,760.00
2023-02-26T20:15:48.742Z,690.00
2023-02-26T20:16:48.668Z,689.00
2023-02-26T20:17:48.673Z,687.00
2023-02-26T20:18:48.652Z,669.00
2023-02-26T20:19:48.739Z,664.00
2023-02-26T20:20:48.633Z,693.00
2023-02-26T20:21:48.651Z,694.00
2023-02-26T20:22:48.645Z,706.00
2023-02-26T20:23:48.642Z,684.00
2023-02-26T20:24:48.628Z,716.00
2023-02-26T20:25:48.623Z,665.00
2023-02-26T20:26:48.594Z,698.00
2023-02-26T20:27:48.598Z,710.00
2023-02-26T20:28:48.585Z,688.00
2023-02-26T20:29:48.616Z,654.00
2023-02-26T20:33:48.573Z,712.00
2023-02-26T20:34:48.622Z,663.00
2023-02-26T20:35:48.535Z,700.00
2023-02-26T20:36:48.532Z,719.00
2023-02-26T20:37:48.537Z,736.00
2023-02-26T20:38:48.546Z,733.00
2023-02-26T20:39:48.545Z,713.00
2023-02-26T20:40:48.570Z,723.00
2023-02-26T20:41:48.593Z,717.00
2023-02-26T20:42:48.592Z,697.00
2023-02-26T20:43:48.571Z,732.00
2023-02-26T20:44:48.594Z,683.00
2023-02-26T20:45:48.587Z,666.00
2023-02-26T20:46:48.660Z,679.00
2023-02-26T20:47:48.572Z,731.00
2023-02-26T20:48:48.552Z,737.00
2023-02-26T20:49:48.621Z,720.00
2023-02-26T20:50:48.569Z,692.00
2023-02-26T20:51:48.562Z,667.00
2023-02-26T20:52:48.609Z,722.00
2023-02-26T20:53:48.570Z,717.00
2023-02-26T20:54:48.557Z,689.00
2023-02-26T20:55:48.554Z,734.00
2023-02-26T20:56:48.600Z,684.00
2023-02-26T20:57:48.576Z,722.00
2023-02-26T20:58:48.584Z,715.00
2023-02-26T20:59:48.617Z,705.00
2023-02-26T21:00:48.624Z,732.00
2023-02-26T21:01:48.584Z,733.00
2023-02-26T21:02:48.668Z,716.00
2023-02-26T21:03:48.638Z,710.00
2023-02-26T21:04:48.688Z,685.00
2023-02-26T21:05:48.701Z,714.00
2023-02-26T21:06:48.659Z,703.00
2023-02-26T21:07:48.706Z,723.00
2023-02-26T21:08:48.662Z,736.00
2023-02-26T21:09:48.720Z,706.00
2023-02-26T21:10:48.693Z,715.00
2023-02-26T21:11:48.700Z,723.00
2023-02-26T21:12:48.732Z,697.00
2023-02-26T21:13:48.708Z,693.00
2023-02-26T21:14:48.691Z,658.00
2023-02-26T21:15:48.687Z,682.00
2023-02-26T21:16:48.699Z,668.00
2023-02-26T21:17:48.707Z,684.00
2023-02-26T21:18:48.723Z,677.00
2023-02-26T21:19:48.690Z,681.00
2023-02-26T21:20:48.694Z,708.00
2023-02-26T21:21:48.713Z,672.00
2023-02-26T21:22:48.705Z,656.00
2023-02-26T21:23:48.711Z,674.00
2023-02-26T21:24:48.755Z,696.00
2023-02-26T21:25:48.723Z,635.00
2023-02-26T21:26:48.725Z,598.00
2023-02-26T21:27:48.782Z,667.00
2023-02-26T21:28:48.754Z,666.00
2023-02-26T21:29:48.773Z,652.00
2023-02-26T21:30:48.835Z,662.00
2023-02-26T21:31:48.841Z,648.00
2023-02-26T21:32:48.818Z,657.00
2023-02-26T21:33:48.810Z,640.00
2023-02-26T21:34:48.832Z,654.00
2023-02-26T21:35:48.895Z,668.00
2023-02-26T21:36:48.903Z,688.00
2023-02-26T21:37:48.867Z,665.00
2023-02-26T21:38:48.911Z,664.00
2023-02-26T21:39:48.919Z,647.00
2023-02-26T21:40:48.924Z,656.00
2023-02-26T21:41:48.934Z,644.00
2023-02-26T21:42:48.905Z,643.00
2023-02-26T21:43:48.951Z,649.00
2023-02-26T21:44:49.676Z,643.00
2023-02-26T21:45:48.979Z,664.00
2023-02-26T21:46:48.961Z,677.00
2023-02-26T21:47:48.978Z,653.00
2023-02-26T21:48:48.968Z,660.00
2023-02-26T21:49:48.975Z,663.00
2023-02-26T21:50:48.999Z,654.00
2023-02-26T21:51:48.982Z,658.00
2023-02-26T21:52:48.967Z,649.00
2023-02-26T21:53:49.016Z,652.00
2023-02-26T21:54:49.034Z,648.00
2023-02-26T21:55:49.026Z,654.00
2023-02-26T21:56:49.027Z,649.00
2023-02-26T21:57:49.030Z,642.00
2023-02-26T21:58:49.059Z,653.00
2023-02-26T21:59:49.057Z,655.00
2023-02-26T22:00:49.134Z,629.00
2023-02-26T22:01:49.057Z,652.00
2023-02-26T22:02:49.123Z,641.00
2023-02-26T22:03:49.121Z,651.00
2023-02-26T22:04:49.123Z,651.00
2023-02-26T22:05:49.132Z,660.00
2023-02-26T22:06:49.138Z,637.00
2023-02-26T22:07:49.128Z,638.00
2023-02-26T22:08:49.159Z,638.00
2023-02-26T22:09:49.212Z,646.00
2023-02-26T22:10:49.154Z,633.00
2023-02-26T22:11:49.186Z,641.00
2023-02-26T22:12:49.193Z,649.00
2023-02-26T22:13:49.211Z,636.00
2023-02-26T22:14:49.267Z,646.00
2023-02-26T22:15:49.262Z,649.00
2023-02-26T22:16:49.357Z,664.00
2023-02-26T22:17:49.310Z,655.00
2023-02-26T22:18:49.314Z,650.00
2023-02-26T22:19:49.313Z,642.00
2023-02-26T22:20:49.323Z,661.00
2023-02-26T22:21:49.349Z,646.00
2023-02-26T22:22:49.350Z,657.00
2023-02-26T22:23:49.366Z,649.00
2023-02-26T22:24:49.396Z,646.00
2023-02-26T22:25:49.417Z,641.00
2023-02-26T22:26:49.432Z,649.00
2023-02-26T22:27:49.452Z,665.00
2023-02-26T22:28:49.457Z,640.00
2023-02-26T22:29:49.471Z,625.00
2023-02-26T22:30:49.502Z,631.00
2023-02-26T22:31:49.650Z,640.00
2023-02-26T22:32:49.527Z,648.00
2023-02-26T22:33:49.560Z,655.00
2023-02-26T22:34:49.573Z,629.00
2023-02-26T22:35:49.567Z,634.00
2023-02-26T22:36:49.613Z,655.00
2023-02-26T22:37:49.618Z,637.00
2023-02-26T22:38:49.677Z,626.00
2023-02-26T22:39:49.678Z,610.00
2023-02-26T22:40:49.703Z,643.00
2023-02-26T22:41:49.752Z,648.00
2023-02-26T22:42:49.769Z,642.00
2023-02-26T22:43:50.288Z,624.00
2023-02-26T22:44:49.769Z,662.00
2023-02-26T22:45:49.809Z,655.00
2023-02-26T22:46:49.819Z,676.00
2023-02-26T22:47:49.811Z,644.00
2023-02-26T22:48:49.821Z,660.00
2023-02-26T22:49:49.871Z,637.00
2023-02-26T22:50:49.921Z,616.00
2023-02-26T22:51:49.928Z,627.00
2023-02-26T22:52:49.924Z,629.00
2023-02-26T22:53:49.926Z,635.00
2023-02-26T22:54:49.974Z,623.00
2023-02-26T22:55:49.980Z,626.00
2023-02-26T22:56:50.017Z,643.00
2023-02-26T22:57:50.105Z,640.00
2023-02-26T22:58:50.030Z,637.00
2023-02-26T22:59:50.036Z,644.00
2023-02-26T23:00:50.088Z,636.00
2023-02-26T23:01:50.222Z,628.00
2023-02-26T23:02:50.140Z,642.00
2023-02-26T23:03:50.142Z,633.00
2023-02-26T23:04:50.146Z,641.00
2023-02-26T23:05:50.136Z,653.00
2023-02-26T23:06:50.217Z,639.00
2023-02-26T23:07:50.207Z,643.00
2023-02-26T23:08:50.237Z,632.00
2023-02-26T23:09:50.206Z,625.00
2023-02-26T23:10:50.253Z,630.00
2023-02-26T23:11:50.309Z,633.00
2023-02-26T23:12:50.310Z,638.00
2023-02-26T23:13:50.305Z,629.00
2023-02-26T23:14:50.335Z,646.00
2023-02-26T23:15:50.413Z,621.00
2023-02-26T23:16:50.398Z,604.00
2023-02-26T23:17:50.412Z,620.00
2023-02-26T23:18:50.464Z,612.00
2023-02-26T23:19:50.457Z,632.00
2023-02-26T23:20:50.464Z,636.00
2023-02-26T23:21:50.482Z,637.00
2023-02-26T23:22:50.536Z,645.00
2023-02-26T23:23:50.511Z,618.00
2023-02-26T23:24:50.555Z,622.00
2023-02-26T23:25:50.565Z,637.00
2023-02-26T23:26:50.565Z,617.00
2023-02-26T23:27:50.608Z,597.00
2023-02-26T23:28:50.619Z,621.00
2023-02-26T23:29:50.630Z,632.00
2023-02-26T23:30:50.746Z,629.00
2023-02-26T23:31:50.829Z,624.00
2023-02-26T23:32:50.701Z,625.00
2023-02-26T23:33:50.750Z,630.00
2023-02-26T23:34:50.777Z,627.00
2023-02-26T23:35:50.779Z,632.00
2023-02-26T23:36:50.812Z,627.00
2023-02-26T23:37:50.806Z,633.00
2023-02-26T23:38:50.852Z,645.00
2023-02-26T23:39:50.859Z,648.00
2023-02-26T23:40:50.861Z,635.00
2023-02-26T23:41:50.875Z,625.00
2023-02-26T23:42:50.891Z,620.00
2023-02-26T23:43:50.918Z,645.00
2023-02-26T23:44:50.919Z,618.00
2023-02-26T23:45:51.004Z,622.00
2023-02-26T23:46:50.977Z,636.00
2023-02-26T23:47:51.017Z,620.00
2023-02-26T23:48:51.026Z,638.00
2023-02-26T23:49:51.017Z,636.00
2023-02-26T23:50:51.064Z,632.00
2023-02-26T23:51:51.135Z,606.00
2023-02-26T23:52:51.153Z,623.00
2023-02-26T23:53:51.151Z,609.00
2023-02-26T23:54:51.160Z,638.00
2023-02-26T23:55:51.212Z,618.00
2023-02-26T23:56:51.211Z,636.00
2023-02-26T23:57:51.234Z,643.00
2023-02-26T23:58:51.266Z,591.00
2023-02-26T23:59:51.307Z,596.00
